Time;durP1;ratioP1;P1;durP2;ratioP2;P2;SDS_P1;SDS_P2;PMS_P1;PMS_P2;Temp;Humidity;BMP_temperature;BMP_pressure;BME280_temperature;BME280_humidity;BME280_pressure;Samples;Min_cycle;Max_cycle;Signal;HPM_P1;HPM_P2
2022/09/03 00:01:37;;;;;;;1.02;0.50;;;25.40;33.10;;;;;;5020054;28;20041;-51
2022/09/03 00:04:21;;;;;;;2.38;0.65;;;25.40;33.10;;;;;;5037239;28;20022;-52
2022/09/03 00:06:59;;;;;;;0.90;0.60;;;25.40;33.10;;;;;;5037396;28;20037;-49
2022/09/03 00:09:34;;;;;;;1.05;0.60;;;25.40;33.10;;;;;;5018227;28;20042;-54
2022/09/03 00:12:25;;;;;;;0.88;0.70;;;25.40;33.10;;;;;;5018274;28;20030;-53
2022/09/03 00:14:59;;;;;;;2.13;0.60;;;25.40;33.10;;;;;;5034341;28;20056;-53
2022/09/03 00:17:34;;;;;;;0.70;0.63;;;25.40;33.20;;;;;;5033750;28;20054;-52
2022/09/03 00:20:12;;;;;;;1.15;0.70;;;25.40;33.20;;;;;;5037234;28;20029;-53
2022/09/03 00:23:19;;;;;;;3.00;0.77;;;25.40;33.10;;;;;;5037919;28;20044;-53
2022/09/03 00:26:16;;;;;;;0.52;0.50;;;25.40;33.10;;;;;;5006686;28;20049;-49
2022/09/03 00:28:51;;;;;;;0.80;0.50;;;25.30;33.10;;;;;;5023781;28;20448;-53
2022/09/03 00:31:36;;;;;;;1.00;0.50;;;25.30;33.20;;;;;;5019699;28;20026;-52
2022/09/03 00:34:14;;;;;;;1.08;0.60;;;25.40;33.30;;;;;;5035713;28;20042;-55
2022/09/03 00:36:42;;;;;;;0.88;0.50;;;25.30;33.20;;;;;;5037659;28;20143;-52
2022/09/03 00:39:17;;;;;;;1.25;0.68;;;25.30;33.20;;;;;;5037306;28;20038;-54
2022/09/03 00:42:08;;;;;;;0.75;0.47;;;25.30;33.20;;;;;;5018586;28;20034;-53
2022/09/03 00:44:47;;;;;;;1.30;0.50;;;25.30;33.20;;;;;;5017677;28;20049;-52
2022/09/03 00:47:29;;;;;;;0.70;0.50;;;25.30;33.20;;;;;;5021533;28;20034;-52
2022/09/03 00:50:03;;;;;;;0.60;0.43;;;25.30;33.20;;;;;;5036375;28;20041;-52
2022/09/03 00:53:08;;;;;;;1.25;0.55;;;25.30;33.20;;;;;;5037096;28;20041;-54
2022/09/03 00:55:50;;;;;;;0.85;0.40;;;25.30;33.20;;;;;;5028980;28;20056;-48
2022/09/03 00:58:34;;;;;;;0.68;0.50;;;25.20;33.20;;;;;;5027654;28;20026;-49
2022/09/03 01:01:09;;;;;;;0.50;0.50;;;25.30;33.30;;;;;;5017427;28;20041;-54
2022/09/03 01:03:54;;;;;;;0.82;0.50;;;25.20;33.20;;;;;;5018506;28;20092;-51
2022/09/03 01:07:15;;;;;;;1.08;0.63;;;25.20;33.20;;;;;;5030003;28;20128;-54
2022/09/03 01:09:55;;;;;;;1.00;0.40;;;25.20;33.20;;;;;;4983938;28;20072;-48
2022/09/03 01:12:21;;;;;;;0.40;0.40;;;25.20;33.30;;;;;;5017182;28;20045;-52
2022/09/03 01:15:03;;;;;;;1.45;0.60;;;25.20;33.30;;;;;;5016965;28;20030;-55
2022/09/03 01:17:31;;;;;;;0.77;0.60;;;25.20;33.30;;;;;;5028495;28;20037;-54
2022/09/03 01:19:57;;;;;;;0.65;0.50;;;25.20;33.30;;;;;;5036574;28;20542;-55
2022/09/03 01:22:29;;;;;;;2.30;0.70;;;25.20;33.30;;;;;;5033660;28;20068;-54
2022/09/03 01:25:10;;;;;;;0.60;0.50;;;25.20;33.30;;;;;;5022725;28;20042;-54
2022/09/03 01:27:38;;;;;;;0.85;0.60;;;25.20;33.30;;;;;;5016539;28;20085;-52
2022/09/03 01:30:17;;;;;;;0.85;0.60;;;25.10;33.30;;;;;;5031772;28;20334;-53
2022/09/03 01:33:03;;;;;;;1.02;0.60;;;25.20;33.40;;;;;;5036214;28;20116;-50
2022/09/03 01:35:44;;;;;;;1.52;0.60;;;25.10;33.30;;;;;;5027367;28;20038;-49
2022/09/03 01:38:23;;;;;;;0.85;0.50;;;25.10;33.30;;;;;;5029579;28;20500;-51
2022/09/03 01:40:49;;;;;;;0.40;0.40;;;25.10;33.30;;;;;;5029021;28;20129;-50
2022/09/03 01:43:35;;;;;;;0.70;0.50;;;25.10;33.40;;;;;;5016378;28;20117;-53
2022/09/03 01:46:12;;;;;;;2.40;0.80;;;25.10;33.40;;;;;;5016407;28;20056;-52
2022/09/03 01:49:01;;;;;;;0.82;0.60;;;25.10;33.40;;;;;;5025253;28;20037;-50
2022/09/03 01:51:29;;;;;;;5.18;0.75;;;25.10;33.40;;;;;;5023214;28;20052;-50
2022/09/03 01:54:05;;;;;;;1.30;0.63;;;25.10;33.40;;;;;;5033102;28;20039;-53
2022/09/03 01:57:09;;;;;;;0.70;0.50;;;25.10;33.40;;;;;;5026238;28;20026;-50
2022/09/03 02:00:07;;;;;;;1.60;0.60;;;25.10;33.60;;;;;;5016272;28;20043;-52
2022/09/03 02:02:42;;;;;;;1.00;0.47;;;25.10;33.40;;;;;;5017207;28;20048;-53
2022/09/03 02:05:24;;;;;;;0.60;0.50;;;25.10;33.40;;;;;;5034213;28;20045;-53
2022/09/03 02:08:08;;;;;;;1.33;0.50;;;25.00;33.40;;;;;;5036056;28;20038;-51
2022/09/03 02:10:43;;;;;;;1.73;0.73;;;25.00;33.40;;;;;;5035857;28;20053;-49
2022/09/03 02:13:18;;;;;;;0.57;0.55;;;25.00;33.40;;;;;;5034389;28;20033;-49
2022/09/03 02:15:45;;;;;;;1.00;0.40;;;25.00;33.40;;;;;;5034067;28;20500;-54
2022/09/03 02:18:32;;;;;;;1.15;0.50;;;25.00;33.40;;;;;;5035572;28;20071;-53
2022/09/03 02:20:59;;;;;;;0.95;0.60;;;25.00;33.40;;;;;;5030976;28;20436;-53
2022/09/03 02:23:26;;;;;;;0.60;0.60;;;25.00;33.40;;;;;;5034678;28;20080;-54
2022/09/03 02:25:56;;;;;;;1.30;0.50;;;25.00;33.50;;;;;;5030246;28;20038;-48
2022/09/03 02:28:22;;;;;;;1.15;0.40;;;25.00;33.50;;;;;;5032111;28;20044;-50
2022/09/03 02:30:48;;;;;;;1.15;0.50;;;25.00;33.50;;;;;;5025415;28;20116;-51
2022/09/03 02:33:15;;;;;;;1.30;0.60;;;25.00;33.50;;;;;;5017252;28;20058;-48
2022/09/03 02:35:42;;;;;;;0.93;0.40;;;25.00;33.50;;;;;;5035208;28;20033;-49
2022/09/03 02:38:21;;;;;;;1.05;0.52;;;24.90;33.50;;;;;;5029229;28;20133;-52
2022/09/03 02:40:47;;;;;;;1.52;0.50;;;25.00;33.50;;;;;;5015519;28;20033;-50
2022/09/03 02:43:38;;;;;;;0.43;0.40;;;24.90;33.50;;;;;;5015306;28;20030;-52
2022/09/03 02:46:06;;;;;;;1.27;0.50;;;24.90;33.50;;;;;;5023069;28;20041;-49
2022/09/03 02:48:32;;;;;;;0.73;0.57;;;24.90;33.50;;;;;;5035246;28;20125;-50
2022/09/03 02:50:58;;;;;;;0.65;0.45;;;24.90;33.60;;;;;;5029486;28;20101;-48
2022/09/03 02:53:27;;;;;;;0.60;0.50;;;24.90;33.50;;;;;;5016196;28;20068;-48
2022/09/03 02:55:56;;;;;;;0.75;0.30;;;24.90;33.60;;;;;;5021256;28;20087;-53
2022/09/03 02:58:21;;;;;;;1.30;0.50;;;24.90;33.60;;;;;;5023939;28;20128;-54
2022/09/03 03:00:48;;;;;;;0.65;0.50;;;24.90;33.60;;;;;;5017329;28;20104;-48
2022/09/03 03:03:13;;;;;;;5.05;1.00;;;24.90;33.60;;;;;;5035351;28;20041;-49
2022/09/03 03:05:58;;;;;;;0.90;0.57;;;24.80;33.50;;;;;;5034753;28;20102;-47
2022/09/03 03:08:27;;;;;;;1.50;0.50;;;24.80;33.50;;;;;;5035234;28;20064;-50
2022/09/03 03:10:58;;;;;;;1.13;0.50;;;24.80;33.60;;;;;;5026363;28;20492;-49
2022/09/03 03:13:25;;;;;;;1.63;0.40;;;24.80;33.50;;;;;;5015364;28;20038;-51
2022/09/03 03:15:51;;;;;;;1.00;0.50;;;24.80;33.60;;;;;;5031503;28;20037;-53
2022/09/03 03:18:16;;;;;;;0.50;0.40;;;24.80;33.60;;;;;;5025540;28;20361;-49
2022/09/03 03:20:43;;;;;;;1.05;0.60;;;24.80;33.60;;;;;;5014737;28;20037;-49
2022/09/03 03:23:09;;;;;;;1.15;0.57;;;24.80;33.60;;;;;;5014936;28;20030;-50
2022/09/03 03:25:38;;;;;;;0.82;0.60;;;24.80;33.60;;;;;;5014858;28;20103;-54
2022/09/03 03:28:05;;;;;;;1.27;0.50;;;24.80;33.60;;;;;;5024111;28;20164;-52
2022/09/03 03:30:31;;;;;;;1.25;0.68;;;24.80;33.60;;;;;;5031797;28;20044;-51
2022/09/03 03:32:57;;;;;;;1.40;0.60;;;24.70;33.60;;;;;;5034320;28;20033;-49
2022/09/03 03:35:23;;;;;;;0.82;0.55;;;24.70;33.60;;;;;;5034136;28;20044;-52
2022/09/03 03:37:49;;;;;;;0.77;0.50;;;24.80;33.60;;;;;;5034557;28;20112;-49
2022/09/03 03:40:16;;;;;;;0.47;0.35;;;24.70;33.60;;;;;;5023924;28;20402;-51
2022/09/03 03:42:41;;;;;;;0.98;0.70;;;24.70;33.60;;;;;;5021829;28;20033;-52
2022/09/03 03:45:11;;;;;;;0.93;0.40;;;24.70;33.60;;;;;;5034366;28;20449;-51
2022/09/03 03:47:37;;;;;;;3.03;0.85;;;24.70;33.60;;;;;;5034394;28;20040;-49
2022/09/03 03:50:04;;;;;;;0.70;0.50;;;24.70;33.60;;;;;;5031112;28;20033;-53
2022/09/03 03:52:30;;;;;;;1.77;0.70;;;24.70;33.60;;;;;;5033504;28;20457;-52
2022/09/03 03:54:56;;;;;;;1.10;0.60;;;24.70;33.60;;;;;;5033293;28;20091;-50
2022/09/03 03:57:22;;;;;;;1.17;0.70;;;24.70;33.70;;;;;;5032009;28;20037;-49
2022/09/03 03:59:48;;;;;;;1.63;0.60;;;24.70;33.70;;;;;;5031525;28;20088;-52
2022/09/03 04:02:15;;;;;;;1.10;0.65;;;24.70;33.70;;;;;;5037257;28;20041;-54
2022/09/03 04:04:41;;;;;;;0.80;0.50;;;24.70;33.70;;;;;;5037611;28;20544;-47
2022/09/03 04:07:07;;;;;;;0.50;0.47;;;24.60;33.70;;;;;;5038139;28;20037;-49
2022/09/03 04:09:34;;;;;;;2.35;0.60;;;24.60;33.70;;;;;;5036904;28;20049;-50
2022/09/03 04:12:00;;;;;;;0.68;0.60;;;24.60;33.70;;;;;;5035500;28;20122;-52
2022/09/03 04:14:26;;;;;;;1.48;0.43;;;24.70;33.80;;;;;;5035424;28;20444;-51
2022/09/03 04:16:53;;;;;;;1.25;0.50;;;24.60;33.70;;;;;;5038405;28;20037;-49
2022/09/03 04:19:19;;;;;;;0.82;0.57;;;24.60;33.70;;;;;;5031165;28;20022;-51
2022/09/03 04:21:45;;;;;;;1.27;0.50;;;24.60;33.80;;;;;;5037845;28;20484;-51
2022/09/03 04:24:11;;;;;;;1.10;0.50;;;24.60;33.80;;;;;;5037576;28;20170;-52
2022/09/03 04:26:38;;;;;;;0.75;0.60;;;24.60;33.80;;;;;;5037712;28;20041;-52
2022/09/03 04:29:06;;;;;;;0.65;0.43;;;24.60;33.80;;;;;;5032541;28;20132;-48
2022/09/03 04:31:33;;;;;;;0.40;0.30;;;24.60;33.80;;;;;;5037703;28;20052;-50
2022/09/03 04:33:59;;;;;;;1.38;0.70;;;24.60;33.80;;;;;;5037856;28;20029;-51
2022/09/03 04:36:28;;;;;;;0.90;0.32;;;24.50;33.70;;;;;;5035819;28;20108;-52
2022/09/03 04:38:55;;;;;;;7.22;0.65;;;24.60;33.80;;;;;;5037791;28;20041;-53
2022/09/03 04:41:26;;;;;;;0.52;0.50;;;24.50;33.80;;;;;;5036085;28;20029;-51
2022/09/03 04:43:54;;;;;;;0.88;0.50;;;24.50;33.80;;;;;;5037589;28;20040;-54
2022/09/03 04:46:22;;;;;;;1.13;0.50;;;24.50;33.80;;;;;;5036304;28;20049;-53
2022/09/03 04:48:50;;;;;;;1.75;0.60;;;24.50;33.80;;;;;;5033657;28;20127;-48
2022/09/03 04:51:18;;;;;;;1.20;0.50;;;24.50;33.80;;;;;;5025507;28;20044;-54
2022/09/03 04:53:46;;;;;;;0.65;0.60;;;24.50;33.80;;;;;;5020108;28;20048;-50
2022/09/03 04:56:20;;;;;;;0.70;0.60;;;24.50;33.80;;;;;;5017405;28;20045;-51
2022/09/03 04:58:48;;;;;;;0.57;0.40;;;24.50;33.80;;;;;;5017544;28;20037;-54
2022/09/03 05:01:19;;;;;;;1.10;0.50;;;24.50;33.80;;;;;;5017104;28;20100;-49
2022/09/03 05:03:46;;;;;;;1.65;0.45;;;24.50;33.80;;;;;;5017551;28;20033;-52
2022/09/03 05:06:12;;;;;;;0.88;0.40;;;24.40;33.80;;;;;;5023164;28;20368;-54
2022/09/03 05:08:39;;;;;;;1.35;0.45;;;24.50;33.80;;;;;;5037415;28;20061;-51
2022/09/03 05:11:07;;;;;;;1.05;0.50;;;24.40;33.80;;;;;;5035230;28;20507;-51
2022/09/03 05:13:35;;;;;;;1.55;0.70;;;24.40;33.80;;;;;;5035622;28;20064;-52
2022/09/03 05:16:06;;;;;;;0.88;0.47;;;24.40;33.80;;;;;;5034183;28;20056;-51
2022/09/03 05:18:36;;;;;;;3.22;0.40;;;24.40;33.80;;;;;;5036075;28;20044;-50
2022/09/03 05:21:13;;;;;;;0.95;0.50;;;24.40;33.80;;;;;;5019614;28;20034;-50
2022/09/03 05:23:42;;;;;;;1.35;0.65;;;24.40;33.80;;;;;;5016647;28;20061;-49
2022/09/03 05:26:13;;;;;;;0.82;0.43;;;24.40;33.80;;;;;;5017014;28;20045;-50
2022/09/03 05:28:41;;;;;;;0.50;0.40;;;24.40;33.80;;;;;;5019281;28;20096;-50
2022/09/03 05:31:09;;;;;;;0.40;0.30;;;24.40;33.80;;;;;;5016894;28;20049;-49
2022/09/03 05:33:37;;;;;;;3.03;0.55;;;24.40;33.80;;;;;;5024458;28;20032;-50
2022/09/03 05:36:08;;;;;;;1.33;0.50;;;24.40;33.90;;;;;;5034473;28;20029;-52
2022/09/03 05:38:35;;;;;;;3.42;0.52;;;24.40;33.90;;;;;;5036121;28;20036;-50
2022/09/03 05:41:03;;;;;;;1.00;0.47;;;24.40;33.90;;;;;;5031027;28;20022;-53
2022/09/03 05:43:29;;;;;;;3.00;0.47;;;24.40;33.90;;;;;;5036558;28;20033;-53
2022/09/03 05:46:08;;;;;;;1.23;0.50;;;24.40;33.90;;;;;;5036497;28;20041;-53
2022/09/03 05:48:35;;;;;;;1.02;0.45;;;24.40;34.00;;;;;;5024794;28;20120;-49
2022/09/03 05:51:15;;;;;;;0.80;0.40;;;24.40;33.80;;;;;;5027237;28;20025;-51
2022/09/03 05:53:42;;;;;;;0.82;0.60;;;24.40;33.90;;;;;;5030576;28;20045;-51
2022/09/03 05:56:11;;;;;;;0.50;0.40;;;24.40;33.90;;;;;;5035589;28;20033;-53
2022/09/03 05:58:44;;;;;;;0.98;0.50;;;24.40;33.90;;;;;;5027063;28;20112;-53
2022/09/03 06:01:24;;;;;;;1.75;0.50;;;24.40;34.60;;;;;;5016385;28;20180;-54
2022/09/03 06:04:02;;;;;;;0.50;0.50;;;24.40;33.90;;;;;;5028518;28;20065;-50
2022/09/03 06:06:30;;;;;;;0.60;0.40;;;24.30;33.90;;;;;;5018883;28;20070;-51
2022/09/03 06:09:01;;;;;;;0.60;0.40;;;24.40;33.90;;;;;;5015880;28;20026;-53
2022/09/03 06:11:28;;;;;;;0.50;0.40;;;24.40;33.90;;;;;;5020537;28;20058;-49
2022/09/03 06:14:01;;;;;;;0.88;0.40;;;24.30;33.90;;;;;;5035228;28;20369;-51
2022/09/03 06:16:32;;;;;;;0.60;0.47;;;24.30;33.90;;;;;;5034503;28;20075;-52
2022/09/03 06:18:59;;;;;;;0.30;0.30;;;24.30;33.90;;;;;;5035451;28;20076;-53
2022/09/03 06:21:24;;;;;;;0.90;0.52;;;24.30;33.90;;;;;;5031641;28;20059;-51
2022/09/03 06:23:52;;;;;;;0.88;0.52;;;24.30;33.90;;;;;;5019791;28;20029;-51
2022/09/03 06:26:19;;;;;;;1.67;0.52;;;24.30;33.90;;;;;;5035759;28;20042;-48
2022/09/03 06:28:46;;;;;;;0.52;0.43;;;24.30;33.90;;;;;;5035545;28;20041;-51
2022/09/03 06:31:15;;;;;;;0.50;0.40;;;24.30;34.00;;;;;;5033561;28;20044;-52
2022/09/03 06:33:44;;;;;;;1.20;0.60;;;24.30;34.00;;;;;;5031486;28;20048;-52
2022/09/03 06:36:15;;;;;;;0.98;0.50;;;24.30;34.00;;;;;;5027213;28;20025;-52
2022/09/03 06:38:43;;;;;;;0.93;0.52;;;24.30;34.10;;;;;;5023987;28;20033;-53
2022/09/03 06:41:22;;;;;;;0.93;0.50;;;24.30;34.10;;;;;;5025365;28;20033;-52
2022/09/03 06:43:49;;;;;;;0.60;0.30;;;24.30;34.80;;;;;;5025115;28;20030;-53
2022/09/03 06:46:17;;;;;;;1.10;0.47;;;24.30;34.20;;;;;;5026927;28;20552;-53
2022/09/03 06:48:43;;;;;;;1.08;0.43;;;24.30;34.20;;;;;;5026958;28;20033;-53
2022/09/03 06:51:18;;;;;;;1.00;0.50;;;24.30;34.20;;;;;;5032793;28;20487;-52
2022/09/03 06:53:47;;;;;;;1.00;0.50;;;24.30;34.30;;;;;;5019634;28;20101;-53
2022/09/03 06:56:25;;;;;;;1.33;0.50;;;24.30;34.30;;;;;;5024737;28;20453;-54
2022/09/03 06:58:53;;;;;;;0.95;0.57;;;24.30;34.30;;;;;;5015200;28;20025;-53
2022/09/03 07:01:22;;;;;;;0.80;0.50;;;24.30;34.30;;;;;;5020616;28;20029;-51
2022/09/03 07:03:55;;;;;;;0.60;0.50;;;24.30;34.40;;;;;;5033959;28;20400;-52
2022/09/03 07:06:23;;;;;;;1.15;0.60;;;24.30;34.40;;;;;;5028355;28;20053;-49
2022/09/03 07:08:49;;;;;;;0.80;0.60;;;24.30;34.50;;;;;;5034822;28;20041;-51
2022/09/03 07:11:18;;;;;;;1.60;0.50;;;24.30;34.50;;;;;;5032910;28;20051;-54
2022/09/03 07:13:46;;;;;;;0.85;0.45;;;24.30;34.50;;;;;;5031343;28;20033;-51
2022/09/03 07:16:21;;;;;;;0.40;0.40;;;24.30;34.50;;;;;;5031844;28;20026;-52
2022/09/03 07:18:48;;;;;;;0.73;0.40;;;24.30;34.60;;;;;;5027613;28;20026;-52
2022/09/03 07:21:28;;;;;;;0.85;0.60;;;24.30;34.60;;;;;;5015634;28;20315;-53
2022/09/03 07:23:55;;;;;;;1.30;0.47;;;24.30;34.70;;;;;;5020527;28;20026;-52
2022/09/03 07:26:26;;;;;;;0.68;0.40;;;24.30;34.70;;;;;;5015965;28;20117;-52
2022/09/03 07:28:53;;;;;;;1.52;0.50;;;24.30;34.80;;;;;;5015016;28;20040;-49
2022/09/03 07:31:24;;;;;;;1.92;0.50;;;24.30;34.80;;;;;;5029714;28;20041;-51
2022/09/03 07:34:22;;;;;;;1.05;0.40;;;24.30;34.90;;;;;;5019823;28;20030;-51
2022/09/03 07:36:49;;;;;;;1.50;0.60;;;24.30;34.90;;;;;;5012936;28;20053;-51
2022/09/03 07:39:16;;;;;;;0.95;0.60;;;24.30;35.00;;;;;;5018676;28;20042;-48
2022/09/03 07:41:44;;;;;;;1.08;0.57;;;24.30;35.00;;;;;;5019652;28;20107;-51
2022/09/03 07:44:15;;;;;;;1.10;0.43;;;24.30;35.10;;;;;;5023146;28;20061;-51
2022/09/03 07:46:42;;;;;;;0.73;0.50;;;24.30;35.20;;;;;;5028008;28;20033;-51
2022/09/03 07:49:08;;;;;;;0.55;0.43;;;24.30;35.20;;;;;;5029583;28;20033;-50
2022/09/03 07:51:36;;;;;;;1.10;0.50;;;24.30;35.30;;;;;;5028139;28;20025;-51
2022/09/03 07:54:06;;;;;;;1.00;0.40;;;24.30;35.30;;;;;;5030189;28;20448;-52
2022/09/03 07:56:36;;;;;;;0.98;0.60;;;24.30;35.30;;;;;;5025962;28;20034;-47
2022/09/03 07:59:03;;;;;;;2.03;0.43;;;24.30;35.40;;;;;;5029337;28;21699;-55
2022/09/03 08:01:31;;;;;;;0.75;0.52;;;24.30;35.40;;;;;;5027175;28;20053;-52
2022/09/03 08:03:57;;;;;;;0.90;0.50;;;24.30;35.40;;;;;;5029528;28;20025;-48
2022/09/03 08:06:26;;;;;;;1.50;0.60;;;24.30;35.50;;;;;;5027095;28;20125;-52
2022/09/03 08:08:59;;;;;;;1.17;0.57;;;24.30;35.50;;;;;;5021211;28;20057;-51
2022/09/03 08:11:27;;;;;;;1.77;0.40;;;24.40;35.50;;;;;;5022446;28;20038;-52
2022/09/03 08:14:01;;;;;;;0.75;0.45;;;24.40;35.60;;;;;;5029045;28;20033;-52
2022/09/03 08:16:29;;;;;;;0.73;0.47;;;24.30;35.50;;;;;;5028423;28;20044;-51
2022/09/03 08:18:55;;;;;;;1.02;0.43;;;24.40;35.50;;;;;;5027932;28;20140;-52
2022/09/03 08:21:22;;;;;;;0.77;0.43;;;24.40;35.50;;;;;;5026159;28;20045;-51
2022/09/03 08:23:51;;;;;;;0.88;0.47;;;24.40;35.60;;;;;;5030531;28;20026;-49
2022/09/03 08:26:18;;;;;;;0.60;0.40;;;24.40;35.50;;;;;;5025972;28;20037;-46
2022/09/03 08:28:44;;;;;;;1.65;0.40;;;24.40;36.30;;;;;;5027537;28;20034;-50
2022/09/03 08:31:16;;;;;;;1.27;0.50;;;24.40;35.90;;;;;;5023089;28;20037;-50
2022/09/03 08:33:50;;;;;;;1.80;0.40;;;24.40;35.90;;;;;;5027201;28;20032;-50
2022/09/03 08:36:24;;;;;;;1.52;0.47;;;24.50;35.90;;;;;;5029159;28;20025;-53
2022/09/03 08:38:54;;;;;;;1.40;0.60;;;24.50;35.90;;;;;;5027295;28;20049;-52
2022/09/03 08:41:28;;;;;;;0.43;0.43;;;24.50;35.80;;;;;;5029666;28;20037;-50
2022/09/03 08:43:59;;;;;;;1.05;0.60;;;24.60;35.80;;;;;;5026029;28;20030;-54
2022/09/03 08:46:39;;;;;;;0.73;0.43;;;24.50;35.70;;;;;;5029563;28;20394;-51
2022/09/03 08:49:08;;;;;;;1.42;0.60;;;24.60;35.70;;;;;;5027773;28;20056;-52
2022/09/03 08:51:36;;;;;;;0.40;0.40;;;24.60;35.60;;;;;;5023250;28;20034;-52
2022/09/03 08:54:03;;;;;;;0.55;0.30;;;24.60;35.60;;;;;;5037070;28;20110;-53
2022/09/03 08:56:34;;;;;;;1.20;0.40;;;24.60;35.60;;;;;;5023771;28;20124;-53
2022/09/03 08:59:01;;;;;;;1.08;0.52;;;24.60;35.60;;;;;;5026182;28;20041;-55
2022/09/03 09:01:54;;;;;;;1.48;0.32;;;24.60;35.50;;;;;;5028631;28;20032;-55
2022/09/03 09:04:47;;;;;;;1.17;0.65;;;24.60;35.50;;;;;;5025649;28;20449;-51
2022/09/03 09:07:22;;;;;;;1.02;0.50;;;24.60;35.60;;;;;;5031166;28;20026;-52
2022/09/03 09:10:18;;;;;;;0.95;0.50;;;24.60;35.60;;;;;;5029141;28;20083;-48
2022/09/03 09:12:56;;;;;;;2.22;0.40;;;24.70;35.60;;;;;;5023937;28;20091;-50
2022/09/03 09:15:52;;;;;;;2.40;0.60;;;24.70;35.60;;;;;;5017251;28;20050;-54
2022/09/03 09:18:37;;;;;;;2.25;0.70;;;24.70;35.60;;;;;;5033057;28;20030;-51
2022/09/03 09:21:26;;;;;;;2.08;0.63;;;24.70;35.60;;;;;;5028262;28;20025;-50
2022/09/03 09:23:55;;;;;;;1.25;0.70;;;24.70;35.70;;;;;;5020830;28;20037;-52
2022/09/03 09:26:21;;;;;;;4.45;0.60;;;24.70;35.70;;;;;;5036045;28;20369;-49
2022/09/03 09:28:59;;;;;;;1.42;0.73;;;24.70;35.70;;;;;;5020082;28;20045;-52
2022/09/03 09:31:27;;;;;;;0.93;0.68;;;24.80;35.80;;;;;;5017994;28;20045;-52
2022/09/03 09:33:52;;;;;;;1.05;0.60;;;24.70;35.70;;;;;;5025215;28;20025;-53
2022/09/03 09:36:19;;;;;;;1.23;0.60;;;24.80;35.80;;;;;;5030452;28;20078;-52
2022/09/03 09:38:47;;;;;;;1.20;0.40;;;24.80;36.50;;;;;;5028324;28;20049;-49
2022/09/03 09:41:16;;;;;;;0.77;0.50;;;24.80;35.80;;;;;;5027009;28;20030;-49
2022/09/03 09:43:44;;;;;;;1.13;0.43;;;24.80;35.80;;;;;;5024044;28;20083;-51
2022/09/03 09:46:26;;;;;;;0.90;0.50;;;24.80;35.70;;;;;;5024563;28;20044;-48
2022/09/03 09:49:01;;;;;;;0.75;0.52;;;24.80;36.30;;;;;;5023208;28;20034;-49
2022/09/03 09:51:30;;;;;;;0.75;0.50;;;24.80;35.80;;;;;;5028321;28;20083;-52
2022/09/03 09:54:11;;;;;;;0.93;0.65;;;24.80;35.90;;;;;;5029323;28;20144;-51
2022/09/03 09:56:37;;;;;;;2.05;0.50;;;24.80;36.00;;;;;;5023841;28;20045;-53
2022/09/03 09:59:08;;;;;;;3.22;0.60;;;24.90;36.20;;;;;;5020362;28;20025;-54
2022/09/03 10:01:46;;;;;;;1.25;0.55;;;24.90;36.30;;;;;;5021958;28;21442;-52
2022/09/03 10:04:22;;;;;;;2.13;0.90;;;24.90;36.30;;;;;;5027959;28;20338;-54
2022/09/03 10:06:58;;;;;;;1.55;0.60;;;25.00;36.40;;;;;;5029541;28;20034;-53
2022/09/03 10:09:28;;;;;;;1.48;0.55;;;25.00;36.40;;;;;;5024852;28;20029;-55
2022/09/03 10:12:13;;;;;;;2.65;0.57;;;25.00;36.50;;;;;;5027010;28;20377;-54
2022/09/03 10:14:52;;;;;;;2.58;0.70;;;25.00;36.60;;;;;;5026288;28;20453;-52
2022/09/03 10:17:34;;;;;;;1.25;0.70;;;25.00;36.70;;;;;;5027555;28;20416;-53
2022/09/03 10:20:25;;;;;;;0.63;0.50;;;25.10;36.80;;;;;;5028738;28;20061;-52
2022/09/03 10:22:56;;;;;;;1.00;0.55;;;25.10;36.70;;;;;;5021739;28;20029;-49
2022/09/03 10:25:29;;;;;;;1.15;0.50;;;25.10;36.50;;;;;;5027535;28;20045;-50
2022/09/03 10:27:58;;;;;;;1.47;0.40;;;25.10;36.40;;;;;;5022911;28;20081;-50
2022/09/03 10:30:24;;;;;;;2.40;0.65;;;25.10;36.30;;;;;;5015003;28;20034;-53
2022/09/03 10:33:15;;;;;;;1.42;0.50;;;25.10;36.30;;;;;;5026197;28;20052;-50
2022/09/03 10:35:51;;;;;;;0.73;0.60;;;25.10;36.30;;;;;;5025680;28;20033;-51
2022/09/03 10:38:32;;;;;;;4.07;0.77;;;25.20;36.70;;;;;;5029377;28;20124;-46
2022/09/03 10:41:28;;;;;;;0.65;0.55;;;25.20;37.10;;;;;;5024499;28;20060;-51
2022/09/03 10:44:25;;;;;;;0.80;0.38;;;25.20;37.10;;;;;;5023395;28;20049;-51
2022/09/03 10:47:14;;;;;;;1.10;0.60;;;25.20;36.90;;;;;;5022900;28;20041;-50
2022/09/03 10:49:55;;;;;;;0.75;0.50;;;25.30;36.80;;;;;;5020194;28;20041;-49
2022/09/03 10:52:33;;;;;;;1.10;0.60;;;25.30;36.60;;;;;;5023462;28;20492;-48
2022/09/03 10:55:21;;;;;;;0.85;0.60;;;25.30;36.50;;;;;;5024167;28;20479;-49
2022/09/03 10:58:28;;;;;;;0.55;0.40;;;25.30;36.30;;;;;;5028229;28;20018;-52
2022/09/03 11:01:00;;;;;;;0.70;0.50;;;25.30;36.10;;;;;;5002030;28;20057;-51
2022/09/03 11:03:53;;;;;;;2.53;0.52;;;25.30;36.10;;;;;;5020251;28;20033;-51
2022/09/03 11:06:28;;;;;;;1.40;0.50;;;25.30;36.00;;;;;;5025220;28;20064;-49
2022/09/03 11:09:28;;;;;;;0.90;0.50;;;25.30;35.90;;;;;;5024069;28;21467;-49
2022/09/03 11:12:21;;;;;;;1.13;0.50;;;25.30;35.80;;;;;;5014582;28;20038;-54
2022/09/03 11:14:59;;;;;;;1.05;0.70;;;25.30;36.00;;;;;;4997044;28;20040;-59
2022/09/03 11:17:32;;;;;;;0.93;0.50;;;25.30;36.30;;;;;;5025609;28;20064;-60
2022/09/03 11:20:15;;;;;;;2.38;0.50;;;25.40;36.50;;;;;;5027836;28;20116;-61
2022/09/03 11:22:45;;;;;;;1.20;0.45;;;25.40;36.50;;;;;;5034257;28;21320;-59
2022/09/03 11:25:13;;;;;;;0.75;0.45;;;25.50;36.40;;;;;;5028989;28;20120;-61
2022/09/03 11:27:42;;;;;;;0.98;0.47;;;25.60;36.30;;;;;;5031330;28;20033;-62
2022/09/03 11:30:13;;;;;;;0.70;0.60;;;25.60;36.30;;;;;;5031150;28;20026;-61
2022/09/03 11:32:41;;;;;;;1.33;0.60;;;25.80;36.60;;;;;;5030013;28;20029;-61
2022/09/03 11:35:27;;;;;;;0.43;0.43;;;25.90;36.70;;;;;;5030659;28;20032;-60
2022/09/03 11:38:23;;;;;;;0.60;0.50;;;26.00;36.80;;;;;;5030036;28;20041;-57
2022/09/03 11:41:02;;;;;;;1.33;0.68;;;26.10;36.70;;;;;;5030688;28;20452;-55
2022/09/03 11:43:34;;;;;;;1.02;0.40;;;26.30;36.80;;;;;;5025792;28;20326;-54
2022/09/03 11:46:25;;;;;;;1.20;0.47;;;26.40;36.70;;;;;;5028793;28;20088;-55
2022/09/03 11:48:54;;;;;;;0.50;0.40;;;26.50;36.50;;;;;;5027947;28;20060;-57
2022/09/03 11:51:40;;;;;;;0.90;0.40;;;26.60;36.30;;;;;;5027852;28;20033;-55
2022/09/03 11:54:24;;;;;;;2.00;0.40;;;26.70;35.90;;;;;;5030245;28;20037;-59
2022/09/03 11:57:02;;;;;;;;;;;26.80;35.70;;;;;;5033464;28;20030;-57
2022/09/03 11:59:30;;;;;;;0.80;0.60;;;26.80;35.60;;;;;;5028941;28;19909;-62
2022/09/03 12:02:18;;;;;;;0.82;0.40;;;26.90;35.70;;;;;;5031420;28;20022;-61
2022/09/03 12:04:56;;;;;;;2.97;0.50;;;27.00;35.70;;;;;;5025996;28;20049;-62
2022/09/03 12:07:44;;;;;;;1.38;0.50;;;27.10;35.70;;;;;;5029505;28;20064;-57
2022/09/03 12:10:42;;;;;;;0.90;0.60;;;27.20;35.70;;;;;;5030809;28;20045;-56
2022/09/03 12:13:36;;;;;;;0.88;0.55;;;27.20;35.70;;;;;;5020557;28;20141;-56
2022/09/03 12:16:10;;;;;;;0.95;0.50;;;27.30;35.70;;;;;;5031267;28;20364;-55
2022/09/03 12:18:39;;;;;;;0.93;0.40;;;27.40;35.60;;;;;;5023854;28;20021;-60
2022/09/03 12:21:09;;;;;;;0.68;0.45;;;27.40;35.50;;;;;;5028376;28;20348;-59
2022/09/03 12:23:47;;;;;;;1.23;0.40;;;27.50;35.30;;;;;;5024768;28;20354;-59
2022/09/03 12:26:19;;;;;;;0.88;0.52;;;27.50;35.20;;;;;;5028702;28;20038;-58
2022/09/03 12:28:52;;;;;;;1.15;0.40;;;27.60;35.10;;;;;;5026648;28;20022;-60
2022/09/03 12:31:23;;;;;;;0.80;0.60;;;27.60;34.90;;;;;;5032777;28;20028;-60
2022/09/03 12:34:00;;;;;;;;;;;27.70;35.00;;;;;;5023663;28;20040;-61
2022/09/03 12:36:40;;;;;;;1.10;0.60;;;27.70;34.80;;;;;;5034340;28;19931;-56
2022/09/03 12:39:10;;;;;;;0.70;0.50;;;27.70;34.60;;;;;;5027224;28;20370;-58
2022/09/03 12:41:36;;;;;;;1.42;0.60;;;27.80;34.60;;;;;;5031121;28;20036;-57
2022/09/03 12:44:02;;;;;;;0.90;0.50;;;27.80;34.50;;;;;;5029473;28;20026;-58
2022/09/03 12:46:32;;;;;;;3.15;0.65;;;27.80;34.40;;;;;;5027896;28;20042;-56
2022/09/03 12:49:04;;;;;;;0.73;0.50;;;27.90;34.40;;;;;;5027492;28;20033;-58
2022/09/03 12:51:44;;;;;;;0.52;0.40;;;27.90;34.30;;;;;;5030583;28;20948;-61
2022/09/03 12:54:14;;;;;;;0.60;0.60;;;28.00;34.30;;;;;;5025260;28;20128;-58
2022/09/03 12:56:52;;;;;;;2.83;0.60;;;28.00;34.30;;;;;;5027638;28;20029;-59
2022/09/03 12:59:21;;;;;;;0.50;0.45;;;28.10;34.20;;;;;;5028178;28;20060;-59
2022/09/03 13:01:53;;;;;;;0.75;0.50;;;28.10;34.20;;;;;;5023396;28;20044;-61
2022/09/03 13:04:25;;;;;;;0.47;0.40;;;28.10;34.30;;;;;;5024423;28;20369;-60
2022/09/03 13:07:02;;;;;;;0.75;0.57;;;28.20;34.30;;;;;;5027560;28;20025;-61
2022/09/03 13:09:32;;;;;;;0.45;0.40;;;28.20;34.20;;;;;;5030335;28;20030;-62
2022/09/03 13:12:00;;;;;;;2.38;0.60;;;28.20;34.20;;;;;;5029440;28;20041;-61
2022/09/03 13:14:26;;;;;;;1.05;0.65;;;28.20;34.20;;;;;;5028081;28;20037;-61
2022/09/03 13:17:11;;;;;;;1.02;0.50;;;28.20;34.30;;;;;;5022839;28;20032;-61
2022/09/03 13:19:57;;;;;;;0.60;0.40;;;28.30;34.30;;;;;;5026637;28;20068;-61
2022/09/03 13:22:49;;;;;;;1.23;0.68;;;28.30;34.30;;;;;;5029417;28;20034;-57